Time;durP1;ratioP1;P1;durP2;ratioP2;P2;SDS_P1;SDS_P2;PMS_P1;PMS_P2;Temp;Humidity;BMP_temperature;BMP_pressure;BME280_temperature;BME280_humidity;BME280_pressure;Samples;Min_cycle;Max_cycle;Signal;HPM_P1;HPM_P2
2022/07/30 00:00:57;;;;;;;1.60;1.50;;;;;;;17.48;61.84;101717.25;4996537;28;20038;-87
2022/07/30 00:03:22;;;;;;;1.60;1.50;;;;;;;17.47;61.74;101718.16;4996658;28;20014;-87
2022/07/30 00:05:54;;;;;;;2.00;1.73;;;;;;;17.43;61.69;101717.41;4996292;28;20023;-86
2022/07/30 00:08:23;;;;;;;1.77;1.67;;;;;;;17.38;62.03;101713.19;4996230;28;20022;-87
2022/07/30 00:10:54;;;;;;;1.50;1.40;;;;;;;17.31;62.62;101711.66;4996143;28;20030;-87
2022/07/30 00:13:31;;;;;;;2.50;1.63;;;;;;;17.27;62.45;101718.75;4996345;28;20034;-87
2022/07/30 00:16:11;;;;;;;1.70;1.60;;;;;;;17.19;62.34;101716.34;4995888;28;20022;-87
2022/07/30 00:18:45;;;;;;;1.50;1.40;;;;;;;17.12;63.75;101720.91;4996343;28;20034;-87
2022/07/30 00:21:23;;;;;;;1.83;1.48;;;;;;;17.03;63.31;101708.06;4995712;28;20031;-87
2022/07/30 00:23:57;;;;;;;1.73;1.63;;;;;;;16.97;63.81;101714.34;4996211;28;20037;-88
2022/07/30 00:26:38;;;;;;;1.50;1.40;;;;;;;16.92;63.90;101702.25;4996220;28;20427;-87
2022/07/30 00:29:06;;;;;;;1.70;1.60;;;;;;;16.91;63.96;101701.38;4995667;28;20029;-87
2022/07/30 00:31:57;;;;;;;1.63;1.52;;;;;;;16.90;63.74;101709.28;4995667;28;20068;-87
2022/07/30 00:34:22;;;;;;;2.63;1.90;;;;;;;16.88;64.03;101700.63;4995574;28;20043;-87
2022/07/30 00:36:47;;;;;;;2.00;1.90;;;;;;;16.86;64.16;101708.50;4996051;28;20086;-87
2022/07/30 00:39:15;;;;;;;1.83;1.63;;;;;;;16.85;64.12;101711.19;4995723;28;20407;-87
2022/07/30 00:42:00;;;;;;;1.75;1.65;;;;;;;16.82;64.18;101709.53;4995660;28;20545;-87
2022/07/30 00:44:27;;;;;;;2.10;1.90;;;;;;;16.78;64.56;101716.59;4995610;28;20344;-87
2022/07/30 00:46:52;;;;;;;;;;;;;;;16.75;64.67;101716.69;4996027;28;20052;-87
2022/07/30 00:49:18;;;;;;;3.30;1.87;;;;;;;16.71;65.83;101717.66;4995299;28;20417;-87
2022/07/30 00:51:43;;;;;;;2.47;1.67;;;;;;;16.67;64.80;101714.28;4995108;28;20018;-87
2022/07/30 00:54:08;;;;;;;2.93;1.93;;;;;;;16.62;64.94;101715.28;4995406;28;20137;-87
2022/07/30 00:56:34;;;;;;;1.80;1.70;;;;;;;16.58;65.54;101711.03;4995239;28;20019;-87
2022/07/30 00:58:59;;;;;;;3.20;2.13;;;;;;;16.54;65.30;101705.00;4995257;28;20022;-87
2022/07/30 01:01:24;;;;;;;2.20;2.00;;;;;;;16.51;65.41;101716.44;4995022;28;20038;-87
2022/07/30 01:03:50;;;;;;;2.33;1.90;;;;;;;16.48;65.84;101708.66;4994418;28;20076;-86
2022/07/30 01:06:15;;;;;;;1.87;1.77;;;;;;;16.46;66.22;101713.06;4995106;28;20114;-87
2022/07/30 01:08:42;;;;;;;2.10;1.90;;;;;;;16.44;66.07;101717.47;4994838;28;20018;-87
2022/07/30 01:11:07;;;;;;;;;;;;;;;16.41;66.54;101711.47;4994784;28;20022;-88
2022/07/30 01:13:33;;;;;;;1.80;1.70;;;;;;;16.37;67.17;101702.84;4994638;28;19920;-87
2022/07/30 01:15:58;;;;;;;1.77;1.67;;;;;;;16.35;66.70;101702.00;4994417;28;20038;-87
2022/07/30 01:19:47;;;;;;;1.97;1.73;;;;;;;16.34;66.86;101700.28;4994459;28;20526;-88
2022/07/30 01:21:16;;;;;;;2.20;2.00;;;;;;;16.34;66.27;101698.53;4994345;28;20030;-87
2022/07/30 01:23:45;;;;;;;2.10;1.90;;;;;;;16.32;66.92;101691.63;4994797;28;20105;-87
2022/07/30 01:26:16;;;;;;;2.10;1.90;;;;;;;16.30;66.95;101699.50;4994063;28;20037;-87
2022/07/30 01:28:45;;;;;;;3.25;2.05;;;;;;;16.30;67.01;101702.13;4994766;28;20034;-87
2022/07/30 01:31:12;;;;;;;2.28;2.08;;;;;;;16.28;66.79;101696.06;4993915;28;20043;-87
2022/07/30 01:33:41;;;;;;;2.78;2.20;;;;;;;16.26;66.93;101702.25;4994904;28;20026;-87
2022/07/30 01:36:11;;;;;;;2.20;2.00;;;;;;;16.21;67.35;101699.75;4994556;28;20037;-87
2022/07/30 01:38:38;;;;;;;2.20;2.00;;;;;;;16.17;67.58;101704.22;4993986;28;20478;-87
2022/07/30 01:41:06;;;;;;;2.42;2.03;;;;;;;16.11;67.54;101698.25;4993389;28;20042;-88
2022/07/30 01:43:34;;;;;;;2.30;2.10;;;;;;;16.10;67.67;101700.00;4994163;28;20117;-87
2022/07/30 01:46:02;;;;;;;2.30;2.10;;;;;;;16.06;67.83;101701.84;4976643;28;20030;-87
2022/07/30 01:48:44;;;;;;;2.10;1.90;;;;;;;15.99;67.90;101692.44;4994602;28;20019;-87
2022/07/30 01:51:18;;;;;;;2.88;2.35;;;;;;;15.99;68.25;101708.13;4994228;28;20034;-88
2022/07/30 01:53:47;;;;;;;1.92;1.80;;;;;;;15.95;67.97;101711.72;4993941;28;20030;-88
2022/07/30 01:56:14;;;;;;;2.30;2.10;;;;;;;15.89;68.01;101704.03;4990523;28;20052;-87
2022/07/30 01:58:41;;;;;;;2.35;2.15;;;;;;;15.83;68.25;101699.75;4994383;28;20459;-88
2022/07/30 02:01:06;;;;;;;2.10;1.90;;;;;;;15.82;68.41;101703.28;4994039;28;20042;-86
2022/07/30 02:03:38;;;;;;;2.27;2.07;;;;;;;15.79;68.65;101705.97;4993911;28;20109;-88
2022/07/30 02:06:20;;;;;;;2.35;2.15;;;;;;;15.75;68.73;101707.78;4993260;28;20042;-88
2022/07/30 02:08:59;;;;;;;1.98;1.88;;;;;;;15.72;69.04;101707.84;4994263;28;20042;-88
2022/07/30 02:14:28;;;;;;;2.53;1.90;;;;;;;15.67;68.99;101714.97;4994133;28;20085;-88
2022/07/30 02:16:56;;;;;;;2.90;2.15;;;;;;;15.66;69.28;101713.25;4994236;28;20019;-86
2022/07/30 02:19:25;;;;;;;2.60;2.20;;;;;;;15.63;69.29;101705.44;4993343;28;20118;-86
2022/07/30 02:22:13;;;;;;;2.20;2.00;;;;;;;15.64;69.36;101712.41;4993660;28;20022;-86
2022/07/30 02:24:41;;;;;;;2.45;2.25;;;;;;;15.64;69.30;101709.78;4994117;28;20029;-87
2022/07/30 02:27:16;;;;;;;2.20;2.00;;;;;;;15.65;69.46;101713.28;4993337;28;20034;-87
2022/07/30 02:29:44;;;;;;;2.15;1.98;;;;;;;15.62;69.37;101710.72;4994132;28;20026;-87
2022/07/30 02:32:13;;;;;;;3.28;2.50;;;;;;;15.59;69.39;101701.19;4993275;28;20527;-87
2022/07/30 02:34:41;;;;;;;3.15;2.30;;;;;;;15.57;70.41;101703.00;4993346;28;20126;-87
2022/07/30 02:37:10;;;;;;;2.20;2.00;;;;;;;15.53;69.93;101706.56;4993125;28;20438;-87
2022/07/30 02:39:37;;;;;;;3.15;2.30;;;;;;;15.48;69.73;101704.03;4993384;28;20033;-87
2022/07/30 02:42:03;;;;;;;2.20;2.00;;;;;;;15.43;70.16;101704.16;4993016;28;20092;-87
2022/07/30 02:44:29;;;;;;;2.53;2.10;;;;;;;15.39;69.91;101710.31;4993876;28;20375;-87
2022/07/30 02:46:56;;;;;;;2.47;2.08;;;;;;;15.38;69.96;101716.44;4993320;28;20030;-87
2022/07/30 02:49:22;;;;;;;;;;;;;;;15.37;70.31;101722.56;4993835;28;20033;-87
2022/07/30 02:51:49;;;;;;;3.22;2.58;;;;;;;15.34;70.11;101709.59;4993668;28;19949;-87
2022/07/30 02:54:17;;;;;;;2.50;2.30;;;;;;;15.31;70.12;101711.41;4993482;28;20541;-87
2022/07/30 02:56:44;;;;;;;2.63;2.42;;;;;;;15.27;70.54;101710.59;4993176;28;20069;-87
2022/07/30 02:59:11;;;;;;;3.33;2.50;;;;;;;15.21;70.31;101716.81;4993121;28;20042;-87
2022/07/30 03:01:37;;;;;;;2.40;2.20;;;;;;;15.21;70.62;101718.56;4993154;28;20121;-86
2022/07/30 03:04:03;;;;;;;2.83;2.47;;;;;;;15.14;70.71;101720.44;4993301;28;20113;-86
2022/07/30 03:06:31;;;;;;;3.05;2.55;;;;;;;15.14;70.67;101723.06;4993444;28;20034;-87
2022/07/30 03:08:57;;;;;;;3.15;2.55;;;;;;;15.10;70.61;101727.50;4984541;28;20037;-87
2022/07/30 03:11:25;;;;;;;2.78;2.28;;;;;;;15.08;71.01;101728.44;4993045;28;20041;-87
2022/07/30 03:13:50;;;;;;;2.40;2.20;;;;;;;15.06;71.17;101727.59;4992063;28;20471;-87
2022/07/30 03:16:18;;;;;;;2.50;2.30;;;;;;;15.03;70.99;101727.66;4995061;28;20034;-87
2022/07/30 03:18:46;;;;;;;2.30;2.10;;;;;;;14.97;71.34;101733.84;4996971;28;20041;-87
2022/07/30 03:21:12;;;;;;;2.50;2.30;;;;;;;14.94;71.28;101731.28;4996694;28;20033;-87
2022/07/30 03:23:39;;;;;;;2.90;2.60;;;;;;;14.94;71.17;101729.56;4996521;28;20069;-87
2022/07/30 03:26:07;;;;;;;3.45;2.42;;;;;;;14.95;71.22;101733.03;4996564;28;20022;-87
2022/07/30 03:28:37;;;;;;;4.03;2.60;;;;;;;14.92;71.37;101728.72;4996767;28;20022;-86
2022/07/30 03:31:04;;;;;;;2.83;2.42;;;;;;;14.87;71.39;101732.31;4996039;28;20053;-87
2022/07/30 03:33:30;;;;;;;3.28;2.38;;;;;;;14.83;71.64;101728.91;4996680;28;20038;-87
2022/07/30 03:35:57;;;;;;;;;;;;;;;14.80;71.56;101726.34;4997053;28;20471;-87
2022/07/30 03:38:23;;;;;;;;;;;;;;;14.79;71.95;101725.50;4996977;28;19914;-87
2022/07/30 03:40:50;;;;;;;2.70;2.38;;;;;;;14.78;72.23;101725.50;4996641;28;19925;-87
2022/07/30 03:43:15;;;;;;;3.13;2.38;;;;;;;14.76;72.01;101725.53;4996755;28;20030;-87
2022/07/30 03:45:44;;;;;;;2.87;2.50;;;;;;;14.77;72.07;101726.38;4996474;28;20026;-87
2022/07/30 03:48:11;;;;;;;3.33;2.60;;;;;;;14.74;71.87;101729.09;4996282;28;20030;-86
2022/07/30 03:50:39;;;;;;;3.00;2.60;;;;;;;14.74;71.58;101731.69;4996366;28;20050;-87
2022/07/30 03:53:05;;;;;;;3.78;2.95;;;;;;;14.74;71.80;101734.31;4995927;28;20033;-87
2022/07/30 03:55:32;;;;;;;2.85;2.50;;;;;;;14.69;71.92;101734.41;4996157;28;20104;-87
2022/07/30 03:57:59;;;;;;;3.85;2.97;;;;;;;14.66;71.77;101735.25;4995387;28;20390;-86
2022/07/30 04:00:26;;;;;;;3.15;2.67;;;;;;;14.66;72.08;101743.09;4996116;28;20034;-86
2022/07/30 04:02:51;;;;;;;3.65;2.80;;;;;;;14.65;72.26;101746.59;4995980;28;20027;-86
2022/07/30 04:05:16;;;;;;;3.27;2.77;;;;;;;14.62;72.16;101741.44;4995713;28;20344;-86
2022/07/30 04:07:42;;;;;;;4.03;2.83;;;;;;;14.63;72.15;101756.25;4996013;28;20336;-86
2022/07/30 04:10:08;;;;;;;3.10;2.50;;;;;;;14.61;72.73;101747.56;4995900;28;20018;-86
2022/07/30 04:12:34;;;;;;;3.85;2.72;;;;;;;14.59;72.43;101753.69;4994961;28;20022;-86
2022/07/30 04:14:59;;;;;;;3.37;2.80;;;;;;;14.56;72.46;101749.38;4995573;28;20114;-86
2022/07/30 04:17:46;;;;;;;3.67;2.80;;;;;;;14.58;72.28;101752.81;4995573;28;20054;-86
2022/07/30 04:20:19;;;;;;;4.07;2.95;;;;;;;14.55;72.54;101757.25;4994914;28;20038;-86
2022/07/30 04:22:46;;;;;;;3.90;2.67;;;;;;;14.53;72.75;101757.25;4995321;28;20027;-87
2022/07/30 04:25:12;;;;;;;;;;;;;;;14.55;72.73;101762.47;4995507;28;20030;-86
2022/07/30 04:27:38;;;;;;;4.22;2.75;;;;;;;14.53;72.61;101759.88;4993817;28;19914;-86
2022/07/30 04:30:04;;;;;;;4.13;3.07;;;;;;;14.51;72.73;101759.06;4995313;28;20022;-86
2022/07/30 04:32:31;;;;;;;3.42;2.90;;;;;;;14.49;72.50;101761.69;4995619;28;20049;-86
2022/07/30 04:34:56;;;;;;;3.45;2.63;;;;;;;14.50;73.13;101765.16;4994581;28;20077;-86
2022/07/30 04:37:24;;;;;;;3.27;2.40;;;;;;;14.50;72.90;101767.78;4995370;28;20109;-86
2022/07/30 04:39:58;;;;;;;4.20;2.60;;;;;;;14.49;72.98;101769.50;4995264;28;20117;-86
2022/07/30 04:42:26;;;;;;;3.08;2.58;;;;;;;14.51;73.11;101772.13;4994765;28;20030;-86
2022/07/30 04:44:52;;;;;;;3.45;2.42;;;;;;;14.51;73.00;101770.34;4994970;28;20026;-86
2022/07/30 04:47:17;;;;;;;2.72;2.40;;;;;;;14.56;73.36;101783.34;4995140;28;20025;-87
2022/07/30 04:49:45;;;;;;;3.33;2.47;;;;;;;14.57;73.34;101781.59;4995063;28;20383;-86
2022/07/30 04:52:12;;;;;;;2.83;2.47;;;;;;;14.60;73.52;101776.31;4994449;28;20057;-86
2022/07/30 04:54:50;;;;;;;3.28;2.20;;;;;;;14.62;73.29;101783.25;4994880;28;20026;-87
2022/07/30 04:57:16;;;;;;;3.10;2.30;;;;;;;14.67;73.55;101791.03;4995186;28;20038;-86
2022/07/30 04:59:42;;;;;;;2.50;2.25;;;;;;;14.70;73.49;101792.72;4995297;28;20352;-87
2022/07/30 05:02:09;;;;;;;2.10;1.90;;;;;;;14.73;73.72;101793.53;4994034;28;20081;-87
2022/07/30 05:04:35;;;;;;;2.65;2.17;;;;;;;14.77;73.81;101794.34;4995311;28;20034;-86
2022/07/30 05:07:02;;;;;;;3.10;2.40;;;;;;;14.80;73.52;101799.50;4994734;28;20023;-87
2022/07/30 05:09:28;;;;;;;;;;;;;;;14.84;75.03;101795.97;4993929;28;20169;-87
2022/07/30 05:11:55;;;;;;;2.23;2.03;;;;;;;14.82;73.94;101793.34;4994692;28;19930;-86
2022/07/30 05:14:22;;;;;;;2.33;2.05;;;;;;;14.84;74.32;101798.56;4994928;28;20316;-87
2022/07/30 05:16:48;;;;;;;2.10;2.00;;;;;;;14.84;75.79;101795.97;4994569;28;20023;-87
2022/07/30 05:19:14;;;;;;;2.45;1.92;;;;;;;14.86;75.66;101796.78;4994706;28;20030;-87
2022/07/30 05:21:39;;;;;;;2.03;1.83;;;;;;;14.88;76.38;101791.53;4994374;28;20034;-87
2022/07/30 05:24:08;;;;;;;2.30;2.00;;;;;;;14.89;74.82;101783.66;4993954;28;20546;-86
2022/07/30 05:26:33;;;;;;;1.85;1.75;;;;;;;14.96;75.45;101789.63;4994723;28;20105;-87
2022/07/30 05:28:59;;;;;;;1.60;1.50;;;;;;;14.98;75.38;101793.94;4994157;28;20109;-86
2022/07/30 05:31:25;;;;;;;1.90;1.80;;;;;;;15.04;75.07;101792.97;4994144;28;20082;-87
2022/07/30 05:33:50;;;;;;;1.83;1.70;;;;;;;15.10;75.37;101802.44;4994366;28;20092;-87
2022/07/30 05:36:16;;;;;;;2.57;1.80;;;;;;;15.13;75.23;101797.16;4995180;28;20467;-87
2022/07/30 05:38:41;;;;;;;1.60;1.50;;;;;;;15.17;75.56;101806.69;4993908;28;20057;-87
2022/07/30 05:41:06;;;;;;;1.70;1.60;;;;;;;15.22;76.23;101809.22;4994080;28;20026;-86
2022/07/30 05:43:31;;;;;;;4.00;2.90;;;;;;;15.25;80.66;101802.16;4993869;28;20034;-86
2022/07/30 05:45:57;;;;;;;3.20;2.80;;;;;;;15.26;81.03;101803.88;4994445;28;20116;-86
2022/07/30 05:48:22;;;;;;;6.23;4.17;;;;;;;15.29;81.79;101809.06;4994583;28;20522;-85
2022/07/30 05:50:48;;;;;;;3.77;2.80;;;;;;;15.34;78.38;101810.72;4992577;28;20065;-87
2022/07/30 05:53:13;;;;;;;2.40;2.20;;;;;;;15.38;78.27;101815.84;4995073;28;20111;-91
2022/07/30 05:55:38;;;;;;;2.40;2.20;;;;;;;15.44;82.49;101814.84;4994793;28;20105;-92
2022/07/30 05:58:04;;;;;;;3.47;2.50;;;;;;;15.48;78.54;101818.31;4993974;28;20026;-87
2022/07/30 06:00:29;;;;;;;3.67;2.90;;;;;;;15.53;81.02;101824.28;4993278;28;20022;-82
2022/07/30 06:02:55;;;;;;;2.97;2.23;;;;;;;15.59;79.76;101822.41;4993298;28;20034;-82
2022/07/30 06:05:20;;;;;;;2.00;1.90;;;;;;;15.63;79.26;101817.97;4993122;28;20027;-82
2022/07/30 06:07:46;;;;;;;2.67;2.33;;;;;;;15.69;81.38;101823.09;4994241;28;20105;-81
2022/07/30 06:10:11;;;;;;;2.20;2.00;;;;;;;15.73;79.60;101822.09;4993414;28;20541;-82
2022/07/30 06:12:36;;;;;;;1.80;1.70;;;;;;;15.78;79.12;101822.00;4992567;28;20049;-82
2022/07/30 06:15:02;;;;;;;1.30;1.30;;;;;;;15.83;78.57;101830.63;4993034;28;20023;-82
2022/07/30 06:17:28;;;;;;;1.30;1.20;;;;;;;15.86;78.21;101825.38;4993580;28;20398;-83
2022/07/30 06:19:53;;;;;;;1.53;1.43;;;;;;;15.92;77.04;101823.50;4992032;28;20110;-82
2022/07/30 06:22:19;;;;;;;2.47;1.83;;;;;;;16.00;78.54;101826.81;4993708;28;20030;-82
2022/07/30 06:24:44;;;;;;;2.40;2.20;;;;;;;16.09;80.46;101831.84;4993152;28;20034;-82
2022/07/30 06:27:09;;;;;;;2.83;2.40;;;;;;;16.14;79.32;101829.97;4992250;28;20117;-82
2022/07/30 06:29:35;;;;;;;1.87;1.70;;;;;;;16.19;78.66;101828.13;4993180;28;20105;-82
2022/07/30 06:32:00;;;;;;;2.57;2.20;;;;;;;16.29;80.05;101833.16;4992802;28;20034;-82
2022/07/30 06:34:26;;;;;;;7.30;4.07;;;;;;;16.39;82.29;101839.88;4992467;28;20050;-82
2022/07/30 06:36:51;;;;;;;4.70;3.27;;;;;;;16.60;80.65;101838.53;4993541;28;20110;-87
2022/07/30 06:39:16;;;;;;;3.90;2.90;;;;;;;16.75;81.44;101837.28;4993543;28;20034;-86
2022/07/30 06:41:42;;;;;;;4.17;2.87;;;;;;;17.03;80.02;101841.81;4992563;28;20130;-87
2022/07/30 06:44:07;;;;;;;4.90;3.10;;;;;;;18.03;77.95;101835.50;4993236;28;20321;-84
2022/07/30 06:46:32;;;;;;;6.00;3.50;;;;;;;19.34;73.87;101837.31;4993400;28;20038;-84
2022/07/30 06:48:58;;;;;;;3.57;2.53;;;;;;;20.93;71.50;101837.28;4992335;28;20117;-84
2022/07/30 06:51:23;;;;;;;8.17;3.50;;;;;;;22.83;60.88;101841.63;4995799;28;20127;-86
2022/07/30 06:53:49;;;;;;;9.73;3.63;;;;;;;23.69;55.32;101840.66;4995656;28;20037;-81
2022/07/30 06:56:14;;;;;;;5.97;3.33;;;;;;;23.39;59.18;101844.03;4997339;28;20073;-80
2022/07/30 06:58:39;;;;;;;4.87;3.00;;;;;;;23.19;57.28;101845.13;4997090;28;20034;-80
2022/07/30 07:01:05;;;;;;;2.97;2.47;;;;;;;23.46;61.42;101846.38;4996611;28;20034;-88
2022/07/30 07:03:30;;;;;;;5.87;2.87;;;;;;;23.66;57.49;101850.56;4997859;28;20026;-88
2022/07/30 07:05:56;;;;;;;5.40;2.97;;;;;;;23.51;56.88;101842.53;4997359;28;20029;-88
2022/07/30 07:08:22;;;;;;;5.78;2.50;;;;;;;23.18;57.34;101848.66;4996631;28;20533;-90
2022/07/30 07:10:47;;;;;;;9.40;3.40;;;;;;;22.89;56.96;101840.44;4997713;28;20545;-90
2022/07/30 07:13:12;;;;;;;2.77;2.30;;;;;;;22.55;59.45;101849.25;4997369;28;20030;-91
2022/07/30 07:15:38;;;;;;;7.27;3.00;;;;;;;22.23;57.90;101846.38;4997414;28;20121;-84
2022/07/30 07:18:19;;;;;;;3.73;2.30;;;;;;;21.87;59.38;101850.69;4996956;28;20089;-89
2022/07/30 07:20:45;;;;;;;3.20;2.22;;;;;;;21.78;60.84;101849.38;4997595;28;20117;-90
2022/07/30 07:23:12;;;;;;;5.13;3.00;;;;;;;21.54;58.88;101844.25;4996448;28;20030;-90
2022/07/30 07:25:38;;;;;;;3.88;2.90;;;;;;;21.08;59.17;101841.88;4997367;28;20034;-88
2022/07/30 07:28:04;;;;;;;3.50;2.60;;;;;;;20.72;61.11;101845.13;4997873;28;20110;-88
2022/07/30 07:30:30;;;;;;;5.70;2.90;;;;;;;20.65;60.91;101847.22;4996378;28;20033;-89
2022/07/30 07:32:55;;;;;;;4.77;2.80;;;;;;;20.52;62.19;101848.63;4996884;28;20038;-88
2022/07/30 07:35:30;;;;;;;2.93;2.40;;;;;;;20.62;62.89;101847.31;4997427;28;20054;-90
2022/07/30 07:37:55;;;;;;;3.83;2.20;;;;;;;20.90;61.46;101846.16;4996378;28;20470;-91
2022/07/30 07:40:20;;;;;;;3.73;2.40;;;;;;;20.96;60.42;101845.03;4997220;28;20027;-89
2022/07/30 07:42:46;;;;;;;4.70;2.10;;;;;;;20.89;62.08;101851.53;4997073;28;20026;-89
2022/07/30 07:45:11;;;;;;;2.20;2.00;;;;;;;21.06;61.83;101846.34;4995974;28;20039;-86
2022/07/30 07:47:47;;;;;;;1.80;1.70;;;;;;;21.31;61.92;101855.00;4996517;28;20109;-87
2022/07/30 07:50:15;;;;;;;1.88;1.77;;;;;;;21.48;61.54;101852.44;4995840;28;20027;-88
2022/07/30 07:52:40;;;;;;;1.95;1.83;;;;;;;21.51;60.76;101857.59;4996926;28;20038;-88
2022/07/30 07:55:06;;;;;;;2.10;1.90;;;;;;;21.57;60.13;101852.00;4996172;28;20125;-88
2022/07/30 07:57:39;;;;;;;4.18;2.17;;;;;;;21.56;59.75;101847.66;4995969;28;20033;-88
2022/07/30 08:00:06;;;;;;;2.95;2.05;;;;;;;21.49;59.58;101851.50;4996331;28;20049;-89
2022/07/30 08:02:31;;;;;;;3.58;1.70;;;;;;;21.47;60.27;101849.88;4996251;28;20030;-90
2022/07/30 08:04:57;;;;;;;2.80;2.37;;;;;;;21.31;58.92;101842.63;4995169;28;20023;-89
2022/07/30 08:07:22;;;;;;;2.13;2.00;;;;;;;21.19;57.89;101843.19;4996245;28;20164;-87
2022/07/30 08:09:47;;;;;;;2.20;2.00;;;;;;;21.23;59.36;101847.41;4995966;28;20130;-81
2022/07/30 08:12:13;;;;;;;2.37;1.70;;;;;;;21.38;60.14;101848.50;4994318;28;20018;-87
2022/07/30 08:14:38;;;;;;;1.60;1.50;;;;;;;21.52;59.89;101851.38;4999649;28;20095;-94
2022/07/30 08:17:03;;;;;;;1.80;1.70;;;;;;;21.60;57.79;101845.78;5001746;28;20034;-84
2022/07/30 08:19:29;;;;;;;2.33;1.90;;;;;;;21.51;56.41;101854.94;4996306;28;20019;-91
2022/07/30 08:21:54;;;;;;;2.03;1.87;;;;;;;21.45;58.87;101853.44;4996451;28;20081;-93
2022/07/30 08:24:19;;;;;;;2.07;1.63;;;;;;;21.45;56.45;101848.16;4996253;28;20031;-91
2022/07/30 08:26:45;;;;;;;2.20;1.83;;;;;;;21.49;58.97;101845.41;4995912;28;20034;-91
2022/07/30 08:29:10;;;;;;;1.60;1.50;;;;;;;21.64;58.27;101849.97;4996098;28;20030;-90
2022/07/30 08:31:35;;;;;;;2.77;1.50;;;;;;;21.78;57.23;101852.00;4995305;28;20046;-90
2022/07/30 08:34:00;;;;;;;1.90;1.80;;;;;;;21.88;57.06;101842.72;4994941;28;20030;-90
2022/07/30 08:36:26;;;;;;;1.83;1.73;;;;;;;21.93;56.86;101844.25;4995724;28;20038;-90
2022/07/30 08:38:51;;;;;;;4.83;2.27;;;;;;;21.81;54.03;101853.63;4994946;28;20109;-87
2022/07/30 08:41:19;;;;;;;3.17;2.23;;;;;;;21.71;55.19;101851.44;4995026;28;20030;-87
2022/07/30 08:43:46;;;;;;;2.97;1.80;;;;;;;21.73;55.44;101849.56;4995220;28;20061;-88
2022/07/30 08:46:14;;;;;;;1.92;1.55;;;;;;;21.86;55.57;101846.34;4994790;28;20088;-88
2022/07/30 08:48:41;;;;;;;3.28;2.00;;;;;;;21.93;54.25;101847.78;4995155;28;20026;-88
2022/07/30 08:51:07;;;;;;;2.90;1.90;;;;;;;21.95;53.92;101850.34;4995211;28;20468;-87
2022/07/30 08:53:34;;;;;;;3.83;2.40;;;;;;;21.75;53.58;101846.84;4994227;28;20023;-87
2022/07/30 08:56:00;;;;;;;3.20;2.03;;;;;;;21.74;55.94;101861.00;4994586;28;20026;-83
2022/07/30 08:58:32;;;;;;;2.67;1.80;;;;;;;21.95;55.32;101851.22;4994709;28;20026;-83
2022/07/30 09:00:57;;;;;;;2.10;1.70;;;;;;;22.03;52.35;101854.34;4993582;28;20029;-83
2022/07/30 09:03:23;;;;;;;1.97;1.87;;;;;;;22.14;53.80;101845.03;4995011;28;20463;-84
2022/07/30 09:05:48;;;;;;;1.60;1.50;;;;;;;22.37;54.61;101842.13;4994255;28;20086;-84
2022/07/30 09:08:14;;;;;;;1.50;1.40;;;;;;;22.54;52.99;101839.59;4993256;28;20027;-82
2022/07/30 09:10:41;;;;;;;3.30;1.80;;;;;;;22.62;51.74;101843.59;4986950;28;20038;-83
2022/07/30 09:13:21;;;;;;;2.40;1.90;;;;;;;22.62;51.77;101848.00;4987921;28;20387;-84
2022/07/30 09:15:47;;;;;;;5.25;2.30;;;;;;;22.42;51.42;101843.69;4989253;28;20018;-83
2022/07/30 09:18:13;;;;;;;3.43;2.03;;;;;;;22.25;52.06;101849.78;4993712;28;20517;-83
2022/07/30 09:20:38;;;;;;;5.10;2.20;;;;;;;22.24;52.53;101854.22;4989275;28;20156;-85
2022/07/30 09:23:05;;;;;;;2.37;1.60;;;;;;;22.46;53.66;101850.56;4984787;28;20399;-84
2022/07/30 09:25:42;;;;;;;2.90;1.90;;;;;;;22.73;49.90;101861.53;4988320;28;20467;-84
2022/07/30 09:28:09;;;;;;;2.00;1.60;;;;;;;22.89;52.80;101863.41;4993890;28;20010;-84
2022/07/30 09:30:52;;;;;;;1.67;1.42;;;;;;;23.14;51.47;101870.94;4992230;28;20386;-84
2022/07/30 09:33:38;;;;;;;2.80;1.90;;;;;;;23.16;50.35;101873.50;4990781;28;20463;-84
2022/07/30 09:36:06;;;;;;;1.73;1.63;;;;;;;23.24;48.08;101866.06;4982627;28;20018;-85
2022/07/30 09:38:46;;;;;;;3.03;1.88;;;;;;;23.33;48.80;101867.34;4982960;28;20026;-84
2022/07/30 09:41:12;;;;;;;1.60;1.50;;;;;;;23.53;51.13;101863.63;4990295;28;20057;-87
2022/07/30 09:43:47;;;;;;;1.35;1.25;;;;;;;23.77;50.94;101866.72;4992247;28;20467;-85
2022/07/30 09:46:14;;;;;;;1.33;1.10;;;;;;;24.02;50.47;101868.03;4992116;28;20038;-86
2022/07/30 09:48:40;;;;;;;1.08;1.08;;;;;;;24.20;48.37;101866.16;4993468;28;20057;-86
2022/07/30 09:51:06;;;;;;;1.20;1.20;;;;;;;24.25;44.73;101856.16;4990780;28;20022;-85
2022/07/30 09:53:31;;;;;;;2.25;1.90;;;;;;;24.14;45.51;101858.56;4985695;28;20524;-85
2022/07/30 09:55:58;;;;;;;1.52;1.40;;;;;;;24.17;45.18;101855.72;4993175;28;20029;-84
2022/07/30 09:58:24;;;;;;;;;;;;;;;24.26;47.22;101854.34;4983137;28;20029;-85
2022/07/30 10:00:55;;;;;;;1.40;1.30;;;;;;;24.37;46.43;101850.09;4992761;28;19913;-85
2022/07/30 10:03:25;;;;;;;1.60;1.50;;;;;;;24.48;46.57;101843.34;4977477;28;20109;-81
2022/07/30 10:05:53;;;;;;;2.85;1.70;;;;;;;24.50;46.79;101844.09;4985387;28;20021;-83
2022/07/30 10:08:19;;;;;;;2.42;1.80;;;;;;;24.56;46.81;101842.88;4985382;28;20033;-82
2022/07/30 10:10:46;;;;;;;2.50;1.70;;;;;;;24.41;46.21;101845.50;4983742;28;20026;-82
2022/07/30 10:13:13;;;;;;;3.08;1.73;;;;;;;24.36;46.85;101844.91;4985123;28;20033;-82
2022/07/30 10:15:39;;;;;;;2.22;1.65;;;;;;;24.47;44.50;101834.53;4985647;28;20030;-83
2022/07/30 10:18:05;;;;;;;1.58;1.45;;;;;;;24.62;45.73;101842.53;4980436;28;20026;-82
2022/07/30 10:20:31;;;;;;;1.40;1.30;;;;;;;24.82;46.37;101841.38;4978890;28;20027;-82
2022/07/30 10:23:06;;;;;;;1.65;1.55;;;;;;;24.96;44.88;101835.22;4983058;28;20019;-82
2022/07/30 10:25:32;;;;;;;1.25;1.17;;;;;;;25.02;46.09;101834.00;4981758;28;20674;-82
2022/07/30 10:27:58;;;;;;;2.08;1.58;;;;;;;24.99;42.04;101845.66;4990902;28;20023;-82
2022/07/30 10:30:26;;;;;;;1.58;1.48;;;;;;;25.06;45.46;101840.81;4989718;28;20022;-82
2022/07/30 10:32:52;;;;;;;1.63;1.52;;;;;;;25.10;45.24;101835.25;4985780;28;20046;-82
2022/07/30 10:35:17;;;;;;;2.40;1.75;;;;;;;25.10;43.70;101837.91;4986143;28;20027;-83
2022/07/30 10:37:48;;;;;;;1.60;1.50;;;;;;;25.21;45.15;101841.69;4991859;28;20475;-84
2022/07/30 10:40:28;;;;;;;1.40;1.30;;;;;;;25.43;45.01;101846.53;4992425;28;20471;-89
2022/07/30 10:43:22;;;;;;;1.70;1.60;;;;;;;25.41;40.88;101833.38;4993144;28;20031;-90
2022/07/30 10:46:03;;;;;;;2.28;1.67;;;;;;;25.39;41.87;101837.88;4988670;28;20046;-88
2022/07/30 10:48:31;;;;;;;1.63;1.50;;;;;;;25.40;43.73;101833.41;4993198;28;20398;-86
2022/07/30 10:51:00;;;;;;;1.40;1.30;;;;;;;25.56;44.62;101842.16;4978841;28;20022;-89
2022/07/30 10:53:36;;;;;;;1.08;1.02;;;;;;;25.85;44.85;101847.41;4986998;28;20040;-89
2022/07/30 10:56:15;;;;;;;;;;;;;;;25.91;43.15;101846.16;4982723;28;20037;-88
2022/07/30 10:59:04;;;;;;;3.13;1.75;;;;;;;25.77;42.34;101847.06;4985200;28;20085;-90
2022/07/30 11:01:47;;;;;;;3.53;1.80;;;;;;;25.74;42.64;101844.59;4994082;28;20355;-89
2022/07/30 11:04:20;;;;;;;1.45;1.30;;;;;;;25.96;44.03;101836.09;4982993;28;20549;-93
2022/07/30 11:06:45;;;;;;;1.15;1.15;;;;;;;26.24;44.23;101825.47;4989479;28;20117;-91
2022/07/30 11:09:39;;;;;;;1.17;1.13;;;;;;;26.54;40.28;101827.88;4977085;28;20400;-91
2022/07/30 11:12:06;;;;;;;3.38;1.83;;;;;;;26.39;41.53;101823.59;4983908;28;20038;-92
2022/07/30 11:14:44;;;;;;;1.52;1.40;;;;;;;26.42;42.46;101832.22;4987516;28;20074;-92
2022/07/30 11:17:10;;;;;;;3.00;1.85;;;;;;;26.29;38.99;101836.69;4975066;28;20394;-91
2022/07/30 11:20:01;;;;;;;2.28;1.70;;;;;;;26.23;43.00;101834.41;4974451;28;20026;-91
2022/07/30 11:22:30;;;;;;;1.20;1.20;;;;;;;26.38;42.34;101829.88;4974263;28;20035;-94
2022/07/30 11:24:56;;;;;;;1.17;1.17;;;;;;;26.56;42.90;101835.75;4977600;28;20081;-92
2022/07/30 11:27:45;;;;;;;1.20;1.20;;;;;;;26.76;41.58;101834.41;4978130;28;20374;-89
2022/07/30 11:30:20;;;;;;;2.13;1.45;;;;;;;26.76;40.05;101826.41;4988802;28;20026;-91
2022/07/30 11:32:47;;;;;;;1.48;1.38;;;;;;;26.80;41.95;101819.94;4988844;28;20057;-91
2022/07/30 11:35:30;;;;;;;2.70;1.60;;;;;;;26.81;40.57;101818.97;4974275;28;20062;-92